ROMMA est une association bénévole à but non lucratif. Votre soutien est indispensable : ADHERER à ROMMA ou FAIRE un DON

Saint-Laurent-du-Pont - (38, Isère)

Chartreuse (410 m)   Longitude: 05° 43' 24" E   Latitude: 45° 23' 14" N Station partenaire n°156
 

Détail journalier du     <<     >>

Température Precipitation Humidité Pression Vent Dir Rafale Dir. rafale
Heure (°C) (mm) (%) (hPa) (km/h) (km/h)
01:00 14.909410201N5SSO
02:00 14.709310201N3N
03:00 14.609310192N5NE
04:00 14.0094101905ENE
05:00 13.409610191NNE5ENE
06:00 12.609610192NE6ENE
07:00 11.609610181ENE5NE
08:00 11.909710192NE5ENE
09:00 11.509710191NE3NE
10:00 14.0097101903ESE
11:00 17.408410191SE8S
12:00 19.507310183SSO10O
13:00 22.106210172N8N
14:00 22.805810162NE6ENE
15:00 23.706410152ESE8SO
16:00 23.606610143SSE13O
17:00 23.106310135S18S
18:00 21.107010136S19SSE
19:00 20.107310136SE18S
20:00 19.407710148SSE26SSO
21:00 18.408310146S21S
22:00 15.708710132ESE11SSE
23:00 15.109010122ENE6ENE
minuit 15.109010112NE8SSO

Graphique du 14-10-2019

 

Serveur OMMA